createdAt,value
2023-04-14T00:00:17.127Z,15.62
2023-04-14T00:01:18.926Z,15.63
2023-04-14T00:02:20.883Z,15.63
2023-04-14T00:03:23.061Z,15.63
2023-04-14T00:04:25.058Z,15.63
2023-04-14T00:05:26.932Z,15.63
2023-04-14T00:06:28.743Z,15.64
2023-04-14T00:07:30.580Z,15.62
2023-04-14T00:08:32.389Z,15.63
2023-04-14T00:09:34.236Z,15.63
2023-04-14T00:10:36.026Z,15.63
2023-04-14T00:11:37.821Z,15.63
2023-04-14T00:12:39.680Z,15.63
2023-04-14T00:13:41.488Z,15.63
2023-04-14T00:14:43.369Z,15.63
2023-04-14T00:15:45.648Z,15.63
2023-04-14T00:16:47.483Z,15.58
2023-04-14T00:17:49.400Z,15.58
2023-04-14T00:18:51.238Z,15.63
2023-04-14T00:19:53.047Z,15.64
2023-04-14T00:20:54.870Z,15.64
2023-04-14T00:21:56.679Z,15.64
2023-04-14T00:22:58.538Z,15.64
2023-04-14T00:24:00.339Z,15.63
2023-04-14T00:25:02.197Z,15.64
2023-04-14T00:26:03.997Z,15.64
2023-04-14T00:27:05.695Z,15.65
2023-04-14T00:28:07.535Z,15.65
2023-04-14T00:29:09.351Z,15.65
2023-04-14T00:30:11.169Z,15.65
2023-04-14T00:31:13.013Z,15.65
2023-04-14T00:32:15.121Z,15.65
2023-04-14T00:33:16.997Z,15.65
2023-04-14T00:34:18.779Z,15.65
2023-04-14T00:35:20.601Z,15.62
2023-04-14T00:36:22.509Z,15.64
2023-04-14T00:37:24.328Z,15.63
2023-04-14T00:38:26.174Z,15.64
2023-04-14T00:39:27.990Z,15.63
2023-04-14T00:40:29.808Z,15.63
2023-04-14T00:41:31.590Z,15.62
2023-04-14T00:42:33.395Z,15.62
2023-04-14T00:43:35.257Z,15.60
2023-04-14T00:44:37.060Z,15.62
2023-04-14T00:45:38.870Z,15.63
2023-04-14T00:46:40.703Z,15.61
2023-04-14T00:47:42.534Z,15.60
2023-04-14T00:48:44.381Z,15.60
2023-04-14T00:49:46.178Z,15.60
2023-04-14T00:50:47.992Z,15.59
2023-04-14T00:51:49.807Z,15.59
2023-04-14T00:52:51.627Z,15.59
2023-04-14T00:53:53.491Z,15.60
2023-04-14T00:54:55.298Z,15.58
2023-04-14T00:55:57.096Z,15.57
2023-04-14T00:56:59.014Z,15.57
2023-04-14T00:58:00.837Z,15.57
2023-04-14T00:59:02.716Z,15.57
2023-04-14T01:00:04.483Z,15.58
2023-04-14T01:01:06.303Z,15.57
2023-04-14T01:02:08.147Z,15.57
2023-04-14T01:03:10.226Z,15.57
2023-04-14T01:04:12.220Z,15.58
2023-04-14T01:05:14.159Z,15.58
2023-04-14T01:06:16.405Z,15.57
2023-04-14T01:07:18.226Z,15.55
2023-04-14T01:08:20.054Z,15.55
2023-04-14T01:09:21.887Z,15.56
2023-04-14T01:10:23.710Z,15.54
2023-04-14T01:11:25.502Z,15.54
2023-04-14T01:12:27.317Z,15.54
2023-04-14T01:13:29.132Z,15.53
2023-04-14T01:14:30.971Z,15.54
2023-04-14T01:15:32.780Z,15.53
2023-04-14T01:16:34.604Z,15.52
2023-04-14T01:17:36.523Z,15.52
2023-04-14T01:18:38.370Z,15.50
2023-04-14T01:19:40.203Z,15.49
2023-04-14T01:20:44.383Z,15.48
2023-04-14T01:21:46.231Z,15.47
2023-04-14T01:22:48.046Z,15.46
2023-04-14T01:23:49.845Z,15.43
2023-04-14T01:24:51.723Z,15.41
2023-04-14T01:25:53.450Z,15.40
2023-04-14T01:26:55.258Z,15.41
2023-04-14T01:27:57.086Z,15.40
2023-04-14T01:28:59.092Z,15.39
2023-04-14T01:30:01.235Z,15.38
2023-04-14T01:31:03.082Z,15.37
2023-04-14T01:32:04.859Z,15.35
2023-04-14T01:33:06.676Z,15.33
2023-04-14T01:34:08.491Z,15.34
2023-04-14T01:35:10.376Z,15.33
2023-04-14T01:36:12.600Z,15.32
2023-04-14T01:37:14.424Z,15.33
2023-04-14T01:38:16.213Z,15.34
2023-04-14T01:39:18.021Z,15.34
2023-04-14T01:40:19.882Z,15.36
2023-04-14T01:41:21.717Z,15.37
2023-04-14T01:42:23.509Z,15.37
2023-04-14T01:43:25.334Z,15.36
2023-04-14T01:44:27.128Z,15.37
2023-04-14T01:45:29.007Z,15.36
2023-04-14T01:46:30.785Z,15.35
2023-04-14T01:47:32.654Z,15.34
2023-04-14T01:48:34.400Z,15.34
2023-04-14T01:49:36.357Z,15.33
2023-04-14T01:50:38.208Z,15.33
2023-04-14T01:51:40.008Z,15.33
2023-04-14T01:52:41.803Z,15.32
2023-04-14T01:53:43.619Z,15.31
2023-04-14T01:54:45.431Z,15.31
2023-04-14T01:55:47.270Z,15.30
2023-04-14T01:56:49.067Z,15.32
2023-04-14T01:57:50.877Z,15.33
2023-04-14T01:58:52.695Z,15.33
2023-04-14T01:59:54.502Z,15.34
2023-04-14T02:00:56.365Z,15.32
2023-04-14T02:01:58.192Z,15.34
2023-04-14T02:03:00.112Z,15.33
2023-04-14T02:04:02.202Z,15.33
2023-04-14T02:05:04.074Z,15.31
2023-04-14T02:06:06.030Z,15.31
2023-04-14T02:07:07.835Z,15.29
2023-04-14T02:08:09.677Z,15.29
2023-04-14T02:09:11.474Z,15.29
2023-04-14T02:10:13.280Z,15.30
2023-04-14T02:11:15.120Z,15.29
2023-04-14T02:12:16.939Z,15.29
2023-04-14T02:13:18.739Z,15.28
2023-04-14T02:14:20.640Z,15.28
2023-04-14T02:15:22.449Z,15.29
2023-04-14T02:16:24.346Z,15.27
2023-04-14T02:17:26.150Z,15.27
2023-04-14T02:18:27.912Z,15.28
2023-04-14T02:19:29.737Z,15.28
2023-04-14T02:20:31.552Z,15.28
2023-04-14T02:21:33.406Z,15.28
2023-04-14T02:22:35.210Z,15.28
2023-04-14T02:23:37.023Z,15.29
2023-04-14T02:24:38.835Z,15.28
2023-04-14T02:25:40.654Z,15.30
2023-04-14T02:26:43.548Z,15.28
2023-04-14T02:27:45.361Z,15.28
2023-04-14T02:28:47.162Z,15.29
2023-04-14T02:29:48.978Z,15.29
2023-04-14T02:30:50.858Z,15.30
2023-04-14T02:31:52.661Z,15.28
2023-04-14T02:32:54.545Z,15.29
2023-04-14T02:33:56.395Z,15.29
2023-04-14T02:34:58.222Z,15.27
2023-04-14T02:35:59.917Z,15.26
2023-04-14T02:37:02.799Z,15.28
2023-04-14T02:38:04.632Z,15.27
2023-04-14T02:39:06.435Z,15.27
2023-04-14T02:40:08.366Z,15.28
2023-04-14T02:41:10.174Z,15.28
2023-04-14T02:42:12.030Z,15.27
2023-04-14T02:43:13.828Z,15.29
2023-04-14T02:44:15.631Z,15.28
2023-04-14T02:45:17.439Z,15.29
2023-04-14T02:46:19.271Z,15.29
2023-04-14T02:47:21.202Z,15.29
2023-04-14T02:48:23.005Z,15.29
2023-04-14T02:49:24.817Z,15.30
2023-04-14T02:50:26.615Z,15.29
2023-04-14T02:51:28.426Z,15.29
2023-04-14T02:52:30.290Z,15.29
2023-04-14T02:53:32.097Z,15.29
2023-04-14T02:54:33.895Z,15.28
2023-04-14T02:55:35.713Z,15.27
2023-04-14T02:56:37.518Z,15.27
2023-04-14T02:57:39.380Z,15.25
2023-04-14T02:58:41.197Z,15.24
2023-04-14T02:59:42.998Z,15.25
2023-04-14T03:00:45.176Z,15.26
2023-04-14T03:01:47.161Z,15.25
2023-04-14T03:02:49.210Z,15.24
2023-04-14T03:03:51.086Z,15.23
2023-04-14T03:04:52.987Z,15.22
2023-04-14T03:05:54.804Z,15.23
2023-04-14T03:06:56.628Z,15.24
2023-04-14T03:07:58.472Z,15.24
2023-04-14T03:09:00.583Z,15.23
2023-04-14T03:10:02.522Z,15.17
2023-04-14T03:11:04.325Z,15.21
2023-04-14T03:12:06.128Z,15.21
2023-04-14T03:13:07.968Z,15.21
2023-04-14T03:14:09.779Z,15.22
2023-04-14T03:15:11.615Z,15.22
2023-04-14T03:16:13.642Z,15.22
2023-04-14T03:17:15.467Z,15.22
2023-04-14T03:18:17.283Z,15.21
2023-04-14T03:19:19.106Z,15.21
2023-04-14T03:20:20.949Z,15.21
2023-04-14T03:21:22.761Z,15.21
2023-04-14T03:22:24.577Z,15.21
2023-04-14T03:23:26.405Z,15.21
2023-04-14T03:24:28.233Z,15.21
2023-04-14T03:25:30.028Z,15.21
2023-04-14T03:26:32.037Z,15.21
2023-04-14T03:27:33.839Z,15.22
2023-04-14T03:28:37.788Z,15.22
2023-04-14T03:29:39.339Z,15.22
2023-04-14T03:30:41.147Z,15.23
2023-04-14T03:31:42.985Z,15.24
2023-04-14T03:32:44.812Z,15.23
2023-04-14T03:33:46.716Z,15.24
2023-04-14T03:34:48.805Z,15.24
2023-04-14T03:35:50.643Z,15.25
2023-04-14T03:36:52.440Z,15.25
2023-04-14T03:37:54.301Z,15.26
2023-04-14T03:38:56.096Z,15.27
2023-04-14T03:39:57.902Z,15.27
2023-04-14T03:40:59.847Z,15.27
2023-04-14T03:42:01.684Z,15.26
2023-04-14T03:43:03.480Z,15.26
2023-04-14T03:44:05.319Z,15.27
2023-04-14T03:45:07.134Z,15.27
2023-04-14T03:46:09.164Z,15.28
2023-04-14T03:47:11.167Z,15.30
2023-04-14T03:48:13.479Z,15.29
2023-04-14T03:49:15.537Z,15.30
2023-04-14T03:50:17.340Z,15.29
2023-04-14T03:51:19.169Z,15.30
2023-04-14T03:52:20.974Z,15.31
2023-04-14T03:53:23.094Z,15.32
2023-04-14T03:54:24.951Z,15.31
2023-04-14T03:55:26.807Z,15.31
2023-04-14T03:56:28.640Z,15.31
2023-04-14T03:57:30.426Z,15.31
2023-04-14T03:58:32.242Z,15.32
2023-04-14T03:59:34.100Z,15.33
2023-04-14T04:00:35.916Z,15.32
2023-04-14T04:01:37.733Z,15.31
2023-04-14T04:02:39.648Z,15.30
2023-04-14T04:03:41.706Z,15.31
2023-04-14T04:04:43.979Z,15.32
2023-04-14T04:05:45.806Z,15.33
2023-04-14T04:06:49.437Z,15.33
2023-04-14T04:07:51.237Z,15.34
2023-04-14T04:08:53.048Z,15.33
2023-04-14T04:09:54.903Z,15.35
2023-04-14T04:10:56.759Z,15.34
2023-04-14T04:11:58.557Z,15.36
2023-04-14T04:13:00.369Z,15.34
2023-04-14T04:14:02.171Z,15.33
2023-04-14T04:15:04.011Z,15.32
2023-04-14T04:16:05.974Z,15.32
2023-04-14T04:17:07.752Z,15.32
2023-04-14T04:18:09.540Z,15.32
2023-04-14T04:19:11.358Z,15.33
2023-04-14T04:20:13.216Z,15.33
2023-04-14T04:21:15.023Z,15.33
2023-04-14T04:22:16.845Z,15.35
2023-04-14T04:23:18.641Z,15.36
2023-04-14T04:24:20.476Z,15.36
2023-04-14T04:25:22.330Z,15.36
2023-04-14T04:26:24.141Z,15.37
2023-04-14T04:27:28.361Z,15.38
2023-04-14T04:28:29.614Z,15.36
2023-04-14T04:29:31.399Z,15.36
2023-04-14T04:30:33.257Z,15.36
2023-04-14T04:31:35.118Z,15.36
2023-04-14T04:32:36.969Z,15.37
2023-04-14T04:33:38.794Z,15.38
2023-04-14T04:34:40.613Z,15.38
2023-04-14T04:35:42.493Z,15.38
2023-04-14T04:36:44.273Z,15.38
2023-04-14T04:37:46.081Z,15.38
2023-04-14T04:38:47.889Z,15.38
2023-04-14T04:39:49.704Z,15.39
2023-04-14T04:40:51.556Z,15.42
2023-04-14T04:41:53.386Z,15.42
2023-04-14T04:42:55.190Z,15.43
2023-04-14T04:43:56.999Z,15.43
2023-04-14T04:44:58.832Z,15.45
2023-04-14T04:46:00.696Z,15.45
2023-04-14T04:47:02.520Z,15.46
2023-04-14T04:48:04.383Z,15.47
2023-04-14T04:49:06.316Z,15.46
2023-04-14T04:50:08.323Z,15.47
2023-04-14T04:51:10.174Z,15.46
2023-04-14T04:52:11.985Z,15.47
2023-04-14T04:53:13.799Z,15.47
2023-04-14T04:54:15.618Z,15.47
2023-04-14T04:55:17.404Z,15.49
2023-04-14T04:56:19.303Z,15.49
2023-04-14T04:57:21.069Z,15.47
2023-04-14T04:58:22.883Z,15.48
2023-04-14T04:59:24.701Z,15.50
2023-04-14T05:00:26.645Z,15.50
2023-04-14T05:01:28.489Z,15.52
2023-04-14T05:02:30.500Z,15.55
2023-04-14T05:03:32.417Z,15.56
2023-04-14T05:04:34.377Z,15.56
2023-04-14T05:05:36.225Z,15.57
2023-04-14T05:06:38.072Z,15.57
2023-04-14T05:07:39.882Z,15.58
2023-04-14T05:08:41.691Z,15.59
2023-04-14T05:09:43.506Z,15.59
2023-04-14T05:10:45.322Z,15.59
2023-04-14T05:11:47.173Z,15.58
2023-04-14T05:12:48.976Z,15.57
2023-04-14T05:13:50.784Z,15.58
2023-04-14T05:14:52.634Z,15.57
2023-04-14T05:15:54.471Z,15.56
2023-04-14T05:16:56.271Z,15.57
2023-04-14T05:17:58.102Z,15.54
2023-04-14T05:19:00.251Z,15.53
2023-04-14T05:20:02.469Z,15.54
2023-04-14T05:21:04.307Z,15.55
2023-04-14T05:22:06.136Z,15.55
2023-04-14T05:23:07.843Z,15.54
2023-04-14T05:24:09.646Z,15.56
2023-04-14T05:25:11.466Z,15.56
2023-04-14T05:27:17.131Z,15.58
2023-04-14T05:28:18.941Z,15.59
2023-04-14T05:29:20.749Z,15.59
2023-04-14T05:30:22.570Z,15.59
2023-04-14T05:31:24.455Z,15.59
2023-04-14T05:32:27.757Z,15.59
2023-04-14T05:33:30.051Z,15.59
2023-04-14T05:34:31.860Z,15.60
2023-04-14T05:35:33.689Z,15.60
2023-04-14T05:36:35.488Z,15.59
2023-04-14T05:37:37.317Z,15.59
2023-04-14T05:38:39.134Z,15.58
2023-04-14T05:39:40.933Z,15.59
2023-04-14T05:40:42.752Z,15.58
2023-04-14T05:41:44.593Z,15.58
2023-04-14T05:42:46.418Z,15.60
2023-04-14T05:43:48.230Z,15.59
2023-04-14T05:44:50.035Z,15.59
2023-04-14T05:45:51.867Z,15.58
2023-04-14T05:46:53.706Z,15.60
2023-04-14T05:47:55.548Z,15.60
2023-04-14T05:48:57.607Z,15.60
2023-04-14T05:49:59.625Z,15.59
2023-04-14T05:51:01.439Z,15.59
2023-04-14T05:52:03.137Z,15.58
2023-04-14T05:53:04.986Z,15.59
2023-04-14T05:54:07.011Z,15.59
2023-04-14T05:55:09.166Z,15.59
2023-04-14T05:56:11.404Z,15.60
2023-04-14T05:57:13.172Z,15.60
2023-04-14T05:58:14.999Z,15.60
2023-04-14T05:59:16.825Z,15.61
2023-04-14T06:00:18.757Z,15.62
2023-04-14T06:01:21.372Z,15.61
2023-04-14T06:02:23.240Z,15.62
2023-04-14T06:03:25.488Z,15.63
2023-04-14T06:04:27.476Z,15.64
2023-04-14T06:05:29.393Z,15.61
2023-04-14T06:06:31.153Z,15.64
2023-04-14T06:07:32.980Z,15.65
2023-04-14T06:08:34.857Z,15.66
2023-04-14T06:09:36.647Z,15.66
2023-04-14T06:10:38.475Z,15.67
2023-04-14T06:11:40.329Z,15.68
2023-04-14T06:12:42.145Z,15.66
2023-04-14T06:13:43.975Z,15.64
2023-04-14T06:14:45.779Z,15.63
2023-04-14T06:15:47.620Z,15.63
2023-04-14T06:16:49.459Z,15.63
2023-04-14T06:17:51.317Z,15.60
2023-04-14T06:18:53.265Z,15.60
2023-04-14T06:19:55.080Z,15.62
2023-04-14T06:20:56.894Z,15.63
2023-04-14T06:21:58.707Z,15.61
2023-04-14T06:23:00.496Z,15.62
2023-04-14T06:24:02.329Z,15.63
2023-04-14T06:25:04.145Z,15.63
2023-04-14T06:26:06.478Z,15.64
2023-04-14T06:27:08.277Z,15.63
2023-04-14T06:28:10.107Z,15.66
2023-04-14T06:29:11.969Z,15.67
2023-04-14T06:30:14.154Z,15.67
2023-04-14T06:31:16.002Z,15.66
2023-04-14T06:32:17.858Z,15.68
2023-04-14T06:34:23.166Z,15.82
2023-04-14T06:35:32.813Z,15.70
2023-04-14T06:36:28.590Z,15.71
2023-04-14T06:37:30.430Z,15.71
2023-04-14T06:38:32.266Z,15.74
2023-04-14T06:39:34.211Z,15.74
2023-04-14T06:40:36.155Z,15.74
2023-04-14T06:41:37.959Z,15.74
2023-04-14T06:42:39.790Z,15.75
2023-04-14T06:43:41.626Z,15.75
2023-04-14T06:44:43.491Z,15.76
2023-04-14T06:45:45.312Z,15.76
2023-04-14T06:46:47.109Z,15.77
2023-04-14T06:47:48.962Z,15.77
2023-04-14T06:48:50.771Z,15.76
2023-04-14T06:49:52.616Z,15.77
2023-04-14T06:50:54.418Z,15.78
2023-04-14T06:51:56.155Z,15.79
2023-04-14T06:52:57.962Z,15.78
2023-04-14T06:54:00.114Z,15.80
2023-04-14T06:55:02.261Z,15.81
2023-04-14T06:56:04.206Z,15.82
2023-04-14T06:57:05.996Z,15.82
2023-04-14T06:58:07.852Z,15.84
2023-04-14T06:59:09.737Z,15.85
2023-04-14T07:00:11.704Z,15.87
2023-04-14T07:01:13.578Z,15.88
2023-04-14T07:02:15.439Z,15.89
2023-04-14T07:03:17.305Z,15.90
2023-04-14T07:04:21.383Z,15.91
2023-04-14T07:05:23.232Z,15.91
2023-04-14T07:06:25.071Z,15.86
2023-04-14T07:07:26.865Z,15.89
2023-04-14T07:08:28.659Z,15.90
2023-04-14T07:09:30.510Z,15.89
2023-04-14T07:10:32.435Z,15.90
2023-04-14T07:11:34.358Z,15.91
2023-04-14T07:12:36.151Z,15.93
2023-04-14T07:13:37.977Z,15.92
2023-04-14T07:14:39.770Z,15.91
2023-04-14T07:15:41.632Z,15.92
2023-04-14T07:16:43.417Z,15.90
2023-04-14T07:17:45.254Z,15.90
2023-04-14T07:18:47.130Z,15.90
2023-04-14T07:19:48.888Z,15.91
2023-04-14T07:20:50.796Z,15.92
2023-04-14T07:21:52.608Z,15.93
2023-04-14T07:22:54.408Z,15.92
2023-04-14T07:23:56.215Z,15.94
2023-04-14T07:24:58.041Z,15.93
2023-04-14T07:25:59.902Z,15.93
2023-04-14T07:27:01.699Z,15.92
2023-04-14T07:28:04.095Z,15.92
2023-04-14T07:29:06.108Z,15.93
2023-04-14T07:30:08.446Z,15.92
2023-04-14T07:31:10.318Z,15.94
2023-04-14T07:32:12.209Z,15.93
2023-04-14T07:33:13.991Z,15.90
2023-04-14T07:34:15.790Z,15.91
2023-04-14T07:35:17.610Z,15.92
2023-04-14T07:36:19.445Z,15.91
2023-04-14T07:37:21.275Z,15.91
2023-04-14T07:38:23.102Z,15.91
2023-04-14T07:39:25.415Z,15.91
2023-04-14T07:40:27.220Z,15.87
2023-04-14T07:41:29.069Z,15.82
2023-04-14T07:42:30.880Z,15.77
2023-04-14T07:43:32.696Z,15.74
2023-04-14T07:44:34.505Z,15.68
2023-04-14T07:45:36.328Z,15.65
2023-04-14T07:46:38.275Z,15.63
2023-04-14T07:47:40.124Z,15.62
2023-04-14T07:48:41.918Z,15.62
2023-04-14T07:49:43.786Z,15.64
2023-04-14T07:50:45.560Z,15.64
2023-04-14T07:51:47.394Z,15.66
2023-04-14T07:52:49.207Z,15.66
2023-04-14T07:53:51.007Z,15.63
2023-04-14T07:54:52.879Z,15.58
2023-04-14T07:55:54.749Z,15.57
2023-04-14T07:56:56.577Z,15.60
2023-04-14T07:57:58.483Z,15.60
2023-04-14T07:59:00.542Z,15.60
2023-04-14T08:00:02.537Z,15.62
2023-04-14T08:01:04.348Z,15.60
2023-04-14T08:02:06.300Z,15.61
2023-04-14T08:03:08.567Z,15.60
2023-04-14T08:04:10.827Z,15.60
2023-04-14T08:05:12.929Z,15.62
2023-04-14T08:06:14.884Z,15.64
2023-04-14T08:07:16.744Z,15.64
2023-04-14T08:08:18.569Z,15.64
2023-04-14T08:09:20.347Z,15.65
2023-04-14T08:10:22.184Z,15.66
2023-04-14T08:11:24.021Z,15.67
2023-04-14T08:12:25.852Z,15.67
2023-04-14T08:13:27.684Z,15.68
2023-04-14T08:14:29.484Z,15.68
2023-04-14T08:15:31.317Z,15.69
2023-04-14T08:16:33.292Z,15.69
2023-04-14T08:17:35.146Z,15.72
2023-04-14T08:18:36.987Z,15.75
2023-04-14T08:19:38.842Z,15.75
2023-04-14T08:20:40.667Z,15.76
2023-04-14T08:21:42.495Z,15.76
2023-04-14T08:22:44.352Z,15.77
2023-04-14T08:23:46.216Z,15.79
2023-04-14T08:24:48.013Z,15.81
2023-04-14T08:25:49.829Z,15.82
2023-04-14T08:26:51.661Z,15.83
2023-04-14T08:27:53.521Z,15.83
2023-04-14T08:28:55.318Z,15.83
2023-04-14T08:29:57.144Z,15.83
2023-04-14T08:30:58.964Z,15.81
2023-04-14T08:32:00.802Z,15.77
2023-04-14T08:33:02.671Z,15.73
2023-04-14T08:34:04.472Z,15.70
2023-04-14T08:35:36.181Z,15.70
2023-04-14T08:36:10.870Z,15.71
2023-04-14T08:37:12.665Z,15.70
2023-04-14T08:38:14.622Z,15.69
2023-04-14T08:39:16.422Z,15.68
2023-04-14T08:40:18.222Z,15.67
2023-04-14T08:41:20.033Z,15.63
2023-04-14T08:42:21.838Z,15.59
2023-04-14T08:43:23.717Z,15.58
2023-04-14T08:44:25.509Z,15.56
2023-04-14T08:45:27.315Z,15.56
2023-04-14T08:46:29.350Z,15.57
2023-04-14T08:47:31.228Z,15.58
2023-04-14T08:48:33.042Z,15.59
2023-04-14T08:49:34.836Z,15.60
2023-04-14T08:50:36.774Z,15.62
2023-04-14T08:51:38.555Z,15.62
2023-04-14T08:52:40.376Z,15.63
2023-04-14T08:53:42.232Z,15.64
2023-04-14T08:54:44.024Z,15.61
2023-04-14T08:55:45.864Z,15.62
2023-04-14T08:56:47.761Z,15.59
2023-04-14T08:57:49.568Z,15.58
2023-04-14T08:58:51.415Z,15.57
2023-04-14T08:59:53.219Z,15.53
2023-04-14T09:00:55.194Z,15.49
2023-04-14T09:01:57.310Z,15.47
2023-04-14T09:02:59.533Z,15.45
2023-04-14T09:04:02.017Z,15.44
2023-04-14T09:05:03.925Z,15.47
2023-04-14T09:06:05.838Z,15.50
2023-04-14T09:07:07.574Z,15.50
2023-04-14T09:08:09.341Z,15.50
2023-04-14T09:09:11.048Z,15.50
2023-04-14T09:10:13.057Z,15.52
2023-04-14T09:11:14.863Z,15.54
2023-04-14T09:12:16.677Z,15.54
2023-04-14T09:13:18.482Z,15.55
2023-04-14T09:14:20.313Z,15.53
2023-04-14T09:15:22.168Z,15.51
2023-04-14T09:16:24.157Z,15.50
2023-04-14T09:17:25.978Z,15.48
2023-04-14T09:18:28.322Z,15.45
2023-04-14T09:19:30.488Z,15.44
2023-04-14T09:20:36.397Z,15.43
2023-04-14T09:21:52.357Z,15.44
2023-04-14T09:22:39.537Z,15.45
2023-04-14T09:23:41.336Z,15.42
2023-04-14T09:24:43.166Z,15.40
2023-04-14T09:25:44.969Z,15.38
2023-04-14T09:26:46.890Z,15.36
2023-04-14T09:27:48.729Z,15.35
2023-04-14T09:28:50.534Z,15.35
2023-04-14T09:29:52.370Z,15.35
2023-04-14T09:30:54.185Z,15.35
2023-04-14T09:31:56.080Z,15.35
2023-04-14T09:32:57.906Z,15.34
2023-04-14T09:33:59.874Z,15.34
2023-04-14T09:35:01.941Z,15.33
2023-04-14T09:36:03.724Z,15.31
2023-04-14T09:37:05.537Z,15.33
2023-04-14T09:38:07.325Z,15.34
2023-04-14T09:39:09.178Z,15.34
2023-04-14T09:40:12.235Z,15.34
2023-04-14T09:41:14.047Z,15.33
2023-04-14T09:42:15.846Z,15.32
2023-04-14T09:43:17.662Z,15.31
2023-04-14T09:44:19.453Z,15.32
2023-04-14T09:45:21.313Z,15.31
2023-04-14T09:46:23.121Z,15.34
2023-04-14T09:47:24.956Z,15.32
2023-04-14T09:48:26.845Z,15.32
2023-04-14T09:49:28.618Z,15.34
2023-04-14T09:50:30.444Z,15.36
2023-04-14T09:51:32.237Z,15.39
2023-04-14T09:52:34.071Z,15.42
2023-04-14T09:53:35.972Z,15.44
2023-04-14T09:54:37.768Z,15.45
2023-04-14T09:55:39.608Z,15.45
2023-04-14T09:56:41.419Z,15.46
2023-04-14T09:57:43.228Z,15.44
2023-04-14T09:58:45.024Z,15.40
2023-04-14T09:59:46.818Z,15.35
2023-04-14T10:00:48.765Z,15.32
2023-04-14T10:01:50.710Z,15.27
2023-04-14T10:02:52.673Z,15.27
2023-04-14T10:03:54.711Z,15.25
2023-04-14T10:04:56.601Z,15.24
2023-04-14T10:05:58.482Z,15.25
2023-04-14T10:07:00.302Z,15.27
2023-04-14T10:08:02.114Z,15.29
2023-04-14T10:09:04.379Z,15.32
2023-04-14T10:10:06.656Z,15.34
2023-04-14T10:11:08.507Z,15.34
2023-04-14T10:12:10.444Z,15.37
2023-04-14T10:13:12.641Z,15.38
2023-04-14T10:14:14.554Z,15.37
2023-04-14T10:15:16.317Z,15.36
2023-04-14T10:16:18.352Z,15.34
2023-04-14T10:17:20.271Z,15.35
2023-04-14T10:18:22.066Z,15.31
2023-04-14T10:19:23.887Z,15.23
2023-04-14T10:20:25.677Z,15.18
2023-04-14T10:21:27.528Z,15.14
2023-04-14T10:22:29.388Z,15.15
2023-04-14T10:23:31.194Z,15.13
2023-04-14T10:24:32.999Z,15.13
2023-04-14T10:25:34.805Z,15.15
2023-04-14T10:26:36.639Z,15.15
2023-04-14T10:27:38.438Z,15.18
2023-04-14T10:28:40.253Z,15.17
2023-04-14T10:29:42.056Z,15.18
2023-04-14T10:30:43.862Z,15.17
2023-04-14T10:31:45.635Z,15.13
2023-04-14T10:32:47.573Z,15.11
2023-04-14T10:33:49.400Z,15.08
2023-04-14T10:34:51.211Z,15.04
2023-04-14T10:35:53.027Z,15.00
2023-04-14T10:36:54.843Z,14.97
2023-04-14T10:37:56.702Z,14.97
2023-04-14T10:38:58.642Z,14.95
2023-04-14T10:40:00.513Z,14.97
2023-04-14T10:41:02.312Z,14.98
2023-04-14T10:42:04.152Z,15.01
2023-04-14T10:43:05.822Z,15.03
2023-04-14T10:44:07.649Z,15.06
2023-04-14T10:45:09.456Z,15.09
2023-04-14T10:46:11.466Z,15.12
2023-04-14T10:47:13.370Z,15.17
2023-04-14T10:48:15.228Z,15.19
2023-04-14T10:49:17.027Z,15.22
2023-04-14T10:50:18.846Z,15.24
2023-04-14T10:51:20.646Z,15.26
2023-04-14T10:52:22.519Z,15.27
2023-04-14T10:53:24.293Z,15.29
2023-04-14T10:54:26.011Z,15.31
2023-04-14T10:55:27.782Z,15.33
2023-04-14T10:56:29.581Z,15.34
2023-04-14T10:57:31.443Z,15.36
2023-04-14T10:58:33.247Z,15.37
2023-04-14T10:59:35.046Z,15.40
2023-04-14T11:00:37.005Z,15.40
2023-04-14T11:01:38.875Z,15.42
2023-04-14T11:02:40.743Z,15.44
2023-04-14T11:03:42.801Z,15.44
2023-04-14T11:04:44.687Z,15.47
2023-04-14T11:05:46.500Z,15.47
2023-04-14T11:06:48.295Z,15.50
2023-04-14T11:07:50.128Z,15.51
2023-04-14T11:08:51.935Z,15.50
2023-04-14T11:09:53.749Z,15.49
2023-04-14T11:10:55.562Z,15.45
2023-04-14T11:11:57.388Z,15.43
2023-04-14T11:12:59.219Z,15.41
2023-04-14T11:14:01.037Z,15.40
2023-04-14T11:15:02.850Z,15.40
2023-04-14T11:16:04.662Z,15.39
2023-04-14T11:17:06.540Z,15.37
2023-04-14T11:18:08.463Z,15.35
2023-04-14T11:19:10.225Z,15.33
2023-04-14T11:20:12.142Z,15.30
2023-04-14T11:21:13.953Z,15.29
2023-04-14T11:22:15.754Z,15.23
2023-04-14T11:23:17.666Z,15.19
2023-04-14T11:24:19.455Z,15.20
2023-04-14T11:25:24.171Z,15.20
2023-04-14T11:26:24.909Z,15.21
2023-04-14T11:27:26.719Z,15.25
2023-04-14T11:28:28.702Z,15.27
2023-04-14T11:29:30.492Z,15.28
2023-04-14T11:30:32.336Z,15.30
2023-04-14T11:31:34.348Z,15.32
2023-04-14T11:32:36.185Z,15.33
2023-04-14T11:33:37.993Z,15.36
2023-04-14T11:34:39.807Z,15.35
2023-04-14T11:35:41.608Z,15.35
2023-04-14T11:36:43.514Z,15.36
2023-04-14T11:37:45.338Z,15.37
2023-04-14T11:38:47.157Z,15.39
2023-04-14T11:39:48.958Z,15.39
2023-04-14T11:40:50.761Z,15.41
2023-04-14T11:41:54.365Z,15.42
2023-04-14T11:42:56.185Z,15.43
2023-04-14T11:43:58.031Z,15.45
2023-04-14T11:44:59.840Z,15.45
2023-04-14T11:46:01.746Z,15.47
2023-04-14T11:47:03.590Z,15.49
2023-04-14T11:48:05.336Z,15.48
2023-04-14T11:49:07.160Z,15.49
2023-04-14T11:50:09.612Z,15.48
2023-04-14T11:51:11.427Z,15.50
2023-04-14T11:52:13.221Z,15.50
2023-04-14T11:53:15.039Z,15.49
2023-04-14T11:54:16.963Z,15.51
2023-04-14T11:55:18.811Z,15.51
2023-04-14T11:56:20.609Z,15.53
2023-04-14T11:57:22.415Z,15.52
2023-04-14T11:58:24.231Z,15.52
2023-04-14T11:59:26.077Z,15.51
2023-04-14T12:00:27.891Z,15.52
2023-04-14T12:01:29.692Z,15.52
2023-04-14T12:02:31.604Z,15.53
2023-04-14T12:03:33.601Z,15.53
2023-04-14T12:04:35.664Z,15.54
2023-04-14T12:05:37.820Z,15.54
2023-04-14T12:06:39.692Z,15.55
2023-04-14T12:07:41.504Z,15.54
2023-04-14T12:08:43.309Z,15.55
2023-04-14T12:09:45.174Z,15.55
2023-04-14T12:10:47.006Z,15.54
2023-04-14T12:11:48.802Z,15.55
2023-04-14T12:12:50.606Z,15.54
2023-04-14T12:13:52.423Z,15.55
2023-04-14T12:14:54.279Z,15.54
2023-04-14T12:15:57.190Z,15.54
2023-04-14T12:16:59.071Z,15.54
2023-04-14T12:18:00.965Z,15.53
2023-04-14T12:19:03.047Z,15.53
2023-04-14T12:20:05.050Z,15.53
2023-04-14T12:21:09.772Z,15.54
2023-04-14T12:22:10.387Z,15.54
2023-04-14T12:23:12.200Z,15.53
2023-04-14T12:24:13.997Z,15.54
2023-04-14T12:25:15.887Z,15.54
2023-04-14T12:26:17.790Z,15.54
2023-04-14T12:27:19.602Z,15.54
2023-04-14T12:28:21.407Z,15.54
2023-04-14T12:29:23.208Z,15.54
2023-04-14T12:30:25.058Z,15.54
2023-04-14T12:31:26.904Z,15.54
2023-04-14T12:32:28.713Z,15.53
2023-04-14T12:33:30.501Z,15.53
2023-04-14T12:34:32.307Z,15.52
2023-04-14T12:35:34.155Z,15.53
2023-04-14T12:37:39.589Z,15.54
2023-04-14T12:38:41.364Z,15.55
2023-04-14T12:39:43.172Z,15.55
2023-04-14T12:40:45.022Z,15.55
2023-04-14T12:41:46.830Z,15.54
2023-04-14T12:42:48.636Z,15.56
2023-04-14T12:43:50.441Z,15.54
2023-04-14T12:44:52.251Z,15.55
2023-04-14T12:45:54.085Z,15.56
2023-04-14T12:46:55.908Z,15.57
2023-04-14T12:47:57.837Z,15.57
2023-04-14T12:48:59.931Z,15.58
2023-04-14T12:50:01.947Z,15.59
2023-04-14T12:51:03.783Z,15.60
2023-04-14T12:52:05.615Z,15.60
2023-04-14T12:53:07.422Z,15.60
2023-04-14T12:54:09.233Z,15.62
2023-04-14T12:55:11.033Z,15.63
2023-04-14T12:56:13.289Z,15.63
2023-04-14T12:57:15.114Z,15.63
2023-04-14T12:58:16.939Z,15.65
2023-04-14T12:59:18.738Z,15.65
2023-04-14T13:00:20.567Z,15.65
2023-04-14T13:01:22.440Z,15.65
2023-04-14T13:02:24.329Z,15.65
2023-04-14T13:03:26.397Z,15.65
2023-04-14T13:04:28.404Z,15.66
2023-04-14T13:05:30.239Z,15.68
2023-04-14T13:06:32.073Z,15.67
2023-04-14T13:07:33.889Z,15.68
2023-04-14T13:08:35.708Z,15.67
2023-04-14T13:09:37.579Z,15.67
2023-04-14T13:10:39.379Z,15.66
2023-04-14T13:11:41.232Z,15.66
2023-04-14T13:12:43.070Z,15.67
2023-04-14T13:13:44.879Z,15.67
2023-04-14T13:14:46.770Z,15.67
2023-04-14T13:16:12.987Z,15.66
2023-04-14T13:16:54.004Z,15.65
2023-04-14T13:17:55.882Z,15.64
2023-04-14T13:18:57.762Z,15.63
2023-04-14T13:19:59.563Z,15.62